sensor_id;sensor_type;location;lat;lon;timestamp;temperature;humidity
8420;DHT22;4247;48.550;8.822;2023-12-07T00:00:11;2.00;99.90
8420;DHT22;4247;48.550;8.822;2023-12-07T00:02:38;2.00;99.90
8420;DHT22;4247;48.550;8.822;2023-12-07T00:05:05;2.00;99.90
8420;DHT22;4247;48.550;8.822;2023-12-07T00:07:31;2.00;99.90
8420;DHT22;4247;48.550;8.822;2023-12-07T00:09:59;2.00;99.90
8420;DHT22;4247;48.550;8.822;2023-12-07T00:12:26;2.00;99.90
8420;DHT22;4247;48.550;8.822;2023-12-07T00:14:53;2.00;99.90
8420;DHT22;4247;48.550;8.822;2023-12-07T00:17:19;2.00;99.90
8420;DHT22;4247;48.550;8.822;2023-12-07T00:19:46;2.00;99.90
8420;DHT22;4247;48.550;8.822;2023-12-07T00:22:14;2.00;99.90
8420;DHT22;4247;48.550;8.822;2023-12-07T00:24:40;2.00;99.90
8420;DHT22;4247;48.550;8.822;2023-12-07T00:27:08;2.00;99.90
8420;DHT22;4247;48.550;8.822;2023-12-07T00:29:36;2.10;99.90
8420;DHT22;4247;48.550;8.822;2023-12-07T00:32:04;2.10;99.90
8420;DHT22;4247;48.550;8.822;2023-12-07T00:34:30;2.10;99.90
8420;DHT22;4247;48.550;8.822;2023-12-07T00:36:57;2.00;99.90
8420;DHT22;4247;48.550;8.822;2023-12-07T00:39:23;2.10;99.90
8420;DHT22;4247;48.550;8.822;2023-12-07T00:41:50;2.20;99.90
8420;DHT22;4247;48.550;8.822;2023-12-07T00:44:19;2.10;99.90
8420;DHT22;4247;48.550;8.822;2023-12-07T00:46:46;2.20;99.90
8420;DHT22;4247;48.550;8.822;2023-12-07T00:49:12;2.20;99.90
8420;DHT22;4247;48.550;8.822;2023-12-07T00:51:39;2.20;99.90
8420;DHT22;4247;48.550;8.822;2023-12-07T00:54:06;2.20;99.90
8420;DHT22;4247;48.550;8.822;2023-12-07T00:56:32;2.10;99.90
8420;DHT22;4247;48.550;8.822;2023-12-07T00:58:59;2.10;99.90
8420;DHT22;4247;48.550;8.822;2023-12-07T01:01:27;2.20;99.90
8420;DHT22;4247;48.550;8.822;2023-12-07T01:03:54;2.20;99.90
8420;DHT22;4247;48.550;8.822;2023-12-07T01:06:21;2.10;99.90
8420;DHT22;4247;48.550;8.822;2023-12-07T01:08:47;2.20;99.90
8420;DHT22;4247;48.550;8.822;2023-12-07T01:11:14;2.10;99.90
8420;DHT22;4247;48.550;8.822;2023-12-07T01:13:41;2.10;99.90
8420;DHT22;4247;48.550;8.822;2023-12-07T01:16:07;2.00;99.90
8420;DHT22;4247;48.550;8.822;2023-12-07T01:18:35;2.00;99.90
8420;DHT22;4247;48.550;8.822;2023-12-07T01:21:02;2.00;99.90
8420;DHT22;4247;48.550;8.822;2023-12-07T01:23:29;2.00;99.90
8420;DHT22;4247;48.550;8.822;2023-12-07T01:25:56;2.00;99.90
8420;DHT22;4247;48.550;8.822;2023-12-07T01:28:22;2.00;99.90
8420;DHT22;4247;48.550;8.822;2023-12-07T01:30:49;1.90;99.90
8420;DHT22;4247;48.550;8.822;2023-12-07T01:33:16;1.90;99.90
8420;DHT22;4247;48.550;8.822;2023-12-07T01:35:44;1.90;99.90
8420;DHT22;4247;48.550;8.822;2023-12-07T01:38:11;1.90;99.90
8420;DHT22;4247;48.550;8.822;2023-12-07T01:40:37;1.80;99.90
8420;DHT22;4247;48.550;8.822;2023-12-07T01:43:04;1.80;99.90
8420;DHT22;4247;48.550;8.822;2023-12-07T01:45:31;1.90;99.90
8420;DHT22;4247;48.550;8.822;2023-12-07T01:47:58;1.90;99.90
8420;DHT22;4247;48.550;8.822;2023-12-07T01:50:26;1.90;99.90
8420;DHT22;4247;48.550;8.822;2023-12-07T01:52:59;1.80;99.90
8420;DHT22;4247;48.550;8.822;2023-12-07T01:55:27;1.80;99.90
8420;DHT22;4247;48.550;8.822;2023-12-07T01:57:55;1.70;99.90
8420;DHT22;4247;48.550;8.822;2023-12-07T02:00:22;1.70;99.90
8420;DHT22;4247;48.550;8.822;2023-12-07T02:02:49;1.70;99.90
8420;DHT22;4247;48.550;8.822;2023-12-07T02:05:17;1.60;99.90
8420;DHT22;4247;48.550;8.822;2023-12-07T02:07:43;1.60;99.90
8420;DHT22;4247;48.550;8.822;2023-12-07T02:10:11;1.60;99.90
8420;DHT22;4247;48.550;8.822;2023-12-07T02:12:39;1.60;99.90
8420;DHT22;4247;48.550;8.822;2023-12-07T02:15:06;1.60;99.90
8420;DHT22;4247;48.550;8.822;2023-12-07T02:17:37;1.50;99.90
8420;DHT22;4247;48.550;8.822;2023-12-07T02:20:09;1.50;99.90
8420;DHT22;4247;48.550;8.822;2023-12-07T02:22:42;1.40;99.90
8420;DHT22;4247;48.550;8.822;2023-12-07T02:25:11;1.40;99.90
8420;DHT22;4247;48.550;8.822;2023-12-07T02:27:41;1.40;99.90
8420;DHT22;4247;48.550;8.822;2023-12-07T02:30:09;1.30;99.90
8420;DHT22;4247;48.550;8.822;2023-12-07T02:32:36;1.20;99.90
8420;DHT22;4247;48.550;8.822;2023-12-07T02:35:04;1.20;99.90
8420;DHT22;4247;48.550;8.822;2023-12-07T02:37:35;1.20;99.90
8420;DHT22;4247;48.550;8.822;2023-12-07T02:40:03;1.20;99.90
8420;DHT22;4247;48.550;8.822;2023-12-07T02:42:31;1.10;99.90
8420;DHT22;4247;48.550;8.822;2023-12-07T02:45:01;1.10;99.90
8420;DHT22;4247;48.550;8.822;2023-12-07T02:47:29;1.00;99.90
8420;DHT22;4247;48.550;8.822;2023-12-07T02:49:55;1.00;99.90
8420;DHT22;4247;48.550;8.822;2023-12-07T02:52:22;0.90;99.90
8420;DHT22;4247;48.550;8.822;2023-12-07T02:54:49;0.90;99.90
8420;DHT22;4247;48.550;8.822;2023-12-07T02:57:15;0.80;99.90
8420;DHT22;4247;48.550;8.822;2023-12-07T02:59:42;0.80;99.90
8420;DHT22;4247;48.550;8.822;2023-12-07T03:02:10;0.70;99.90
8420;DHT22;4247;48.550;8.822;2023-12-07T03:04:37;0.60;99.90
8420;DHT22;4247;48.550;8.822;2023-12-07T03:07:04;0.50;99.90
8420;DHT22;4247;48.550;8.822;2023-12-07T03:09:30;0.50;99.90
8420;DHT22;4247;48.550;8.822;2023-12-07T03:11:57;0.50;99.90
8420;DHT22;4247;48.550;8.822;2023-12-07T03:14:24;0.50;99.90
8420;DHT22;4247;48.550;8.822;2023-12-07T03:16:50;0.40;99.90
8420;DHT22;4247;48.550;8.822;2023-12-07T03:19:19;0.40;99.90
8420;DHT22;4247;48.550;8.822;2023-12-07T03:21:45;0.40;99.90
8420;DHT22;4247;48.550;8.822;2023-12-07T03:24:13;0.40;99.90
8420;DHT22;4247;48.550;8.822;2023-12-07T03:26:39;0.40;99.90
8420;DHT22;4247;48.550;8.822;2023-12-07T03:29:06;0.30;99.90
8420;DHT22;4247;48.550;8.822;2023-12-07T03:31:33;0.30;99.90
8420;DHT22;4247;48.550;8.822;2023-12-07T03:34:00;0.20;99.90
8420;DHT22;4247;48.550;8.822;2023-12-07T03:36:29;0.20;99.90
8420;DHT22;4247;48.550;8.822;2023-12-07T03:38:55;0.30;99.90
8420;DHT22;4247;48.550;8.822;2023-12-07T03:41:22;0.20;99.90
8420;DHT22;4247;48.550;8.822;2023-12-07T03:43:49;0.20;99.90
8420;DHT22;4247;48.550;8.822;2023-12-07T03:46:17;0.20;99.90
8420;DHT22;4247;48.550;8.822;2023-12-07T03:48:43;0.10;99.90
8420;DHT22;4247;48.550;8.822;2023-12-07T03:51:13;0.10;99.90
8420;DHT22;4247;48.550;8.822;2023-12-07T03:53:41;0.00;99.90
8420;DHT22;4247;48.550;8.822;2023-12-07T03:56:09;-0.10;99.90
8420;DHT22;4247;48.550;8.822;2023-12-07T03:58:36;-0.10;99.90
8420;DHT22;4247;48.550;8.822;2023-12-07T04:01:03;0.00;99.90
8420;DHT22;4247;48.550;8.822;2023-12-07T04:03:29;-0.10;99.90
8420;DHT22;4247;48.550;8.822;2023-12-07T04:05:56;-0.10;99.90
8420;DHT22;4247;48.550;8.822;2023-12-07T04:08:23;-0.10;99.90
8420;DHT22;4247;48.550;8.822;2023-12-07T04:10:51;-0.20;99.90
8420;DHT22;4247;48.550;8.822;2023-12-07T04:13:18;-0.20;99.90
8420;DHT22;4247;48.550;8.822;2023-12-07T04:15:45;-0.20;99.90
8420;DHT22;4247;48.550;8.822;2023-12-07T04:18:12;-0.30;99.90
8420;DHT22;4247;48.550;8.822;2023-12-07T04:20:38;-0.30;99.90
8420;DHT22;4247;48.550;8.822;2023-12-07T04:23:05;-0.30;99.90
8420;DHT22;4247;48.550;8.822;2023-12-07T04:25:32;-0.30;99.90
8420;DHT22;4247;48.550;8.822;2023-12-07T04:28:00;-0.30;99.90
8420;DHT22;4247;48.550;8.822;2023-12-07T04:30:27;-0.30;99.90
8420;DHT22;4247;48.550;8.822;2023-12-07T04:32:54;-0.40;99.90
8420;DHT22;4247;48.550;8.822;2023-12-07T04:35:20;-0.40;99.90
8420;DHT22;4247;48.550;8.822;2023-12-07T04:37:47;-0.40;99.90
8420;DHT22;4247;48.550;8.822;2023-12-07T04:40:14;-0.50;99.90
8420;DHT22;4247;48.550;8.822;2023-12-07T04:42:41;-0.50;99.90
8420;DHT22;4247;48.550;8.822;2023-12-07T04:45:09;-0.50;99.90
8420;DHT22;4247;48.550;8.822;2023-12-07T04:47:36;-0.60;99.90
8420;DHT22;4247;48.550;8.822;2023-12-07T04:50:03;-0.60;99.90
8420;DHT22;4247;48.550;8.822;2023-12-07T04:52:30;-0.50;99.90
8420;DHT22;4247;48.550;8.822;2023-12-07T04:54:57;-0.50;99.90
8420;DHT22;4247;48.550;8.822;2023-12-07T04:57:24;-0.50;99.90
8420;DHT22;4247;48.550;8.822;2023-12-07T04:59:50;-0.50;99.90
8420;DHT22;4247;48.550;8.822;2023-12-07T05:02:18;-0.60;99.90
8420;DHT22;4247;48.550;8.822;2023-12-07T05:04:45;-0.60;99.90
8420;DHT22;4247;48.550;8.822;2023-12-07T05:07:12;-0.60;99.90
8420;DHT22;4247;48.550;8.822;2023-12-07T05:09:39;-0.70;99.90
8420;DHT22;4247;48.550;8.822;2023-12-07T05:12:07;-0.60;99.90
8420;DHT22;4247;48.550;8.822;2023-12-07T05:14:34;-0.70;99.90
8420;DHT22;4247;48.550;8.822;2023-12-07T05:17:01;-0.70;99.90
8420;DHT22;4247;48.550;8.822;2023-12-07T05:19:30;-0.60;99.90
8420;DHT22;4247;48.550;8.822;2023-12-07T05:21:56;-0.70;99.90
8420;DHT22;4247;48.550;8.822;2023-12-07T05:24:23;-0.70;99.90
8420;DHT22;4247;48.550;8.822;2023-12-07T05:26:50;-0.80;99.90
8420;DHT22;4247;48.550;8.822;2023-12-07T05:29:17;-0.80;99.90
8420;DHT22;4247;48.550;8.822;2023-12-07T05:31:44;-0.80;99.90
8420;DHT22;4247;48.550;8.822;2023-12-07T05:34:11;-0.80;99.90
8420;DHT22;4247;48.550;8.822;2023-12-07T05:36:39;-0.90;99.90
8420;DHT22;4247;48.550;8.822;2023-12-07T05:39:05;-0.90;99.90
8420;DHT22;4247;48.550;8.822;2023-12-07T05:41:33;-0.90;99.90
8420;DHT22;4247;48.550;8.822;2023-12-07T05:43:59;-0.90;99.90
8420;DHT22;4247;48.550;8.822;2023-12-07T05:46:27;-1.00;99.90
8420;DHT22;4247;48.550;8.822;2023-12-07T05:48:54;-1.00;99.90
8420;DHT22;4247;48.550;8.822;2023-12-07T05:51:20;-1.00;99.90
8420;DHT22;4247;48.550;8.822;2023-12-07T05:53:48;-1.00;99.90
8420;DHT22;4247;48.550;8.822;2023-12-07T05:56:18;-1.10;99.90
8420;DHT22;4247;48.550;8.822;2023-12-07T05:58:45;-1.10;99.90
8420;DHT22;4247;48.550;8.822;2023-12-07T06:01:12;-1.10;99.90
8420;DHT22;4247;48.550;8.822;2023-12-07T06:03:39;-1.10;99.90
8420;DHT22;4247;48.550;8.822;2023-12-07T06:06:05;-1.10;99.90
8420;DHT22;4247;48.550;8.822;2023-12-07T06:08:32;-1.20;99.90
8420;DHT22;4247;48.550;8.822;2023-12-07T06:11:01;-1.20;99.90
8420;DHT22;4247;48.550;8.822;2023-12-07T06:13:28;-1.20;99.90
8420;DHT22;4247;48.550;8.822;2023-12-07T06:15:54;-1.30;99.90
8420;DHT22;4247;48.550;8.822;2023-12-07T06:18:21;-1.30;99.90
8420;DHT22;4247;48.550;8.822;2023-12-07T06:20:48;-1.30;99.90
8420;DHT22;4247;48.550;8.822;2023-12-07T06:23:14;-1.30;99.90
8420;DHT22;4247;48.550;8.822;2023-12-07T06:25:41;-1.30;99.90
8420;DHT22;4247;48.550;8.822;2023-12-07T06:28:09;-1.40;99.90
8420;DHT22;4247;48.550;8.822;2023-12-07T06:30:36;-1.40;99.90
8420;DHT22;4247;48.550;8.822;2023-12-07T06:33:03;-1.40;99.90
8420;DHT22;4247;48.550;8.822;2023-12-07T06:35:30;-1.40;99.90
8420;DHT22;4247;48.550;8.822;2023-12-07T06:37:57;-1.40;99.90
8420;DHT22;4247;48.550;8.822;2023-12-07T06:40:23;-1.40;99.90
8420;DHT22;4247;48.550;8.822;2023-12-07T06:42:50;-1.50;99.90
8420;DHT22;4247;48.550;8.822;2023-12-07T06:45:18;-1.50;99.90
8420;DHT22;4247;48.550;8.822;2023-12-07T06:47:45;-1.50;99.90
8420;DHT22;4247;48.550;8.822;2023-12-07T06:50:11;-1.50;99.90
8420;DHT22;4247;48.550;8.822;2023-12-07T06:52:38;-1.50;99.90
8420;DHT22;4247;48.550;8.822;2023-12-07T06:55:06;-1.60;99.90
8420;DHT22;4247;48.550;8.822;2023-12-07T06:57:35;-1.60;99.90
8420;DHT22;4247;48.550;8.822;2023-12-07T07:00:03;-1.60;99.90
8420;DHT22;4247;48.550;8.822;2023-12-07T07:02:37;-1.60;99.90
8420;DHT22;4247;48.550;8.822;2023-12-07T07:05:04;-1.60;99.90
8420;DHT22;4247;48.550;8.822;2023-12-07T07:07:32;-1.70;99.90
8420;DHT22;4247;48.550;8.822;2023-12-07T07:09:58;-1.70;99.90
8420;DHT22;4247;48.550;8.822;2023-12-07T07:12:25;-1.70;99.90
8420;DHT22;4247;48.550;8.822;2023-12-07T07:14:53;-1.70;99.90
8420;DHT22;4247;48.550;8.822;2023-12-07T07:17:19;-1.70;99.90
8420;DHT22;4247;48.550;8.822;2023-12-07T07:19:47;-1.70;99.90
8420;DHT22;4247;48.550;8.822;2023-12-07T07:22:14;-1.70;99.90
8420;DHT22;4247;48.550;8.822;2023-12-07T07:24:41;-1.70;99.90
8420;DHT22;4247;48.550;8.822;2023-12-07T07:27:08;-1.60;99.90
8420;DHT22;4247;48.550;8.822;2023-12-07T07:29:35;-1.60;99.90
8420;DHT22;4247;48.550;8.822;2023-12-07T07:32:01;-1.60;99.90
8420;DHT22;4247;48.550;8.822;2023-12-07T07:34:28;-1.60;99.90
8420;DHT22;4247;48.550;8.822;2023-12-07T07:36:56;-1.50;99.90
8420;DHT22;4247;48.550;8.822;2023-12-07T07:39:23;-1.40;99.90
8420;DHT22;4247;48.550;8.822;2023-12-07T07:41:49;-1.50;99.90
8420;DHT22;4247;48.550;8.822;2023-12-07T07:44:16;-1.40;99.90
8420;DHT22;4247;48.550;8.822;2023-12-07T07:46:43;-1.40;99.90
8420;DHT22;4247;48.550;8.822;2023-12-07T07:49:10;-1.30;99.90
8420;DHT22;4247;48.550;8.822;2023-12-07T07:51:36;-1.30;99.90
8420;DHT22;4247;48.550;8.822;2023-12-07T07:54:05;-1.30;99.90
8420;DHT22;4247;48.550;8.822;2023-12-07T07:56:32;-1.30;99.90
8420;DHT22;4247;48.550;8.822;2023-12-07T07:58:58;-1.30;99.90
8420;DHT22;4247;48.550;8.822;2023-12-07T08:01:26;-1.20;99.90
8420;DHT22;4247;48.550;8.822;2023-12-07T08:03:52;-1.10;99.90
8420;DHT22;4247;48.550;8.822;2023-12-07T08:06:20;-1.10;99.90
8420;DHT22;4247;48.550;8.822;2023-12-07T08:08:46;-1.10;99.90
8420;DHT22;4247;48.550;8.822;2023-12-07T08:11:16;-1.10;99.90
8420;DHT22;4247;48.550;8.822;2023-12-07T08:13:42;-1.00;99.90
8420;DHT22;4247;48.550;8.822;2023-12-07T08:16:09;-0.90;99.90
8420;DHT22;4247;48.550;8.822;2023-12-07T08:18:36;-0.90;99.90
8420;DHT22;4247;48.550;8.822;2023-12-07T08:21:03;-0.80;99.90
8420;DHT22;4247;48.550;8.822;2023-12-07T08:23:30;-0.80;99.90
8420;DHT22;4247;48.550;8.822;2023-12-07T08:25:57;-0.70;99.90
8420;DHT22;4247;48.550;8.822;2023-12-07T08:28:25;-0.70;99.90
8420;DHT22;4247;48.550;8.822;2023-12-07T08:30:51;-0.70;99.90
8420;DHT22;4247;48.550;8.822;2023-12-07T08:33:18;-0.60;99.90
8420;DHT22;4247;48.550;8.822;2023-12-07T08:35:45;-0.60;99.90
8420;DHT22;4247;48.550;8.822;2023-12-07T08:38:12;-0.60;99.90
8420;DHT22;4247;48.550;8.822;2023-12-07T08:40:38;-0.60;99.90
8420;DHT22;4247;48.550;8.822;2023-12-07T08:43:05;-0.50;99.90
8420;DHT22;4247;48.550;8.822;2023-12-07T08:45:33;-0.50;99.90
8420;DHT22;4247;48.550;8.822;2023-12-07T08:48:04;-0.50;99.90
8420;DHT22;4247;48.550;8.822;2023-12-07T08:50:31;-0.50;99.90
8420;DHT22;4247;48.550;8.822;2023-12-07T08:52:57;-0.50;99.90
8420;DHT22;4247;48.550;8.822;2023-12-07T08:55:24;-0.40;99.90
8420;DHT22;4247;48.550;8.822;2023-12-07T08:57:53;-0.30;99.90
8420;DHT22;4247;48.550;8.822;2023-12-07T09:00:19;-0.30;99.90
8420;DHT22;4247;48.550;8.822;2023-12-07T09:02:50;-0.30;99.90
8420;DHT22;4247;48.550;8.822;2023-12-07T09:05:18;-0.20;99.90
8420;DHT22;4247;48.550;8.822;2023-12-07T09:07:45;-0.20;99.90
8420;DHT22;4247;48.550;8.822;2023-12-07T09:10:12;-0.20;99.90
8420;DHT22;4247;48.550;8.822;2023-12-07T09:12:39;-0.10;99.90
8420;DHT22;4247;48.550;8.822;2023-12-07T09:15:07;-0.10;99.90
8420;DHT22;4247;48.550;8.822;2023-12-07T09:17:35;0.00;99.90
8420;DHT22;4247;48.550;8.822;2023-12-07T09:20:06;0.00;99.90
8420;DHT22;4247;48.550;8.822;2023-12-07T09:22:37;0.00;99.90
8420;DHT22;4247;48.550;8.822;2023-12-07T09:25:04;0.00;99.90
8420;DHT22;4247;48.550;8.822;2023-12-07T09:27:33;0.10;99.90
8420;DHT22;4247;48.550;8.822;2023-12-07T09:30:00;0.10;99.90
8420;DHT22;4247;48.550;8.822;2023-12-07T09:32:27;0.10;99.90
8420;DHT22;4247;48.550;8.822;2023-12-07T09:34:53;0.20;99.90
8420;DHT22;4247;48.550;8.822;2023-12-07T09:37:21;0.20;99.90
8420;DHT22;4247;48.550;8.822;2023-12-07T09:39:48;0.20;99.90
8420;DHT22;4247;48.550;8.822;2023-12-07T09:42:15;0.20;99.90
8420;DHT22;4247;48.550;8.822;2023-12-07T09:44:42;0.30;99.90
8420;DHT22;4247;48.550;8.822;2023-12-07T09:47:09;0.30;99.90
8420;DHT22;4247;48.550;8.822;2023-12-07T09:49:37;0.30;99.90
8420;DHT22;4247;48.550;8.822;2023-12-07T09:52:05;0.30;99.90
8420;DHT22;4247;48.550;8.822;2023-12-07T09:54:34;0.40;99.90
8420;DHT22;4247;48.550;8.822;2023-12-07T09:57:01;0.40;99.90
8420;DHT22;4247;48.550;8.822;2023-12-07T09:59:28;0.40;99.90
8420;DHT22;4247;48.550;8.822;2023-12-07T10:01:55;0.40;99.90
8420;DHT22;4247;48.550;8.822;2023-12-07T10:04:22;0.40;99.90
8420;DHT22;4247;48.550;8.822;2023-12-07T10:06:51;0.50;99.90
8420;DHT22;4247;48.550;8.822;2023-12-07T10:09:20;0.50;99.90
8420;DHT22;4247;48.550;8.822;2023-12-07T10:11:48;0.50;99.90
8420;DHT22;4247;48.550;8.822;2023-12-07T10:14:14;0.50;99.90
8420;DHT22;4247;48.550;8.822;2023-12-07T10:16:52;0.50;99.90
8420;DHT22;4247;48.550;8.822;2023-12-07T10:19:20;0.60;99.90
8420;DHT22;4247;48.550;8.822;2023-12-07T10:21:48;0.50;99.90
8420;DHT22;4247;48.550;8.822;2023-12-07T10:24:15;0.60;99.90
8420;DHT22;4247;48.550;8.822;2023-12-07T10:26:43;0.60;99.90
8420;DHT22;4247;48.550;8.822;2023-12-07T10:29:11;0.60;99.90
8420;DHT22;4247;48.550;8.822;2023-12-07T10:31:38;0.60;99.90
8420;DHT22;4247;48.550;8.822;2023-12-07T10:34:05;0.70;99.90
8420;DHT22;4247;48.550;8.822;2023-12-07T10:36:32;0.70;99.90
8420;DHT22;4247;48.550;8.822;2023-12-07T10:38:59;0.70;99.90
8420;DHT22;4247;48.550;8.822;2023-12-07T10:41:25;0.70;99.90
8420;DHT22;4247;48.550;8.822;2023-12-07T10:43:54;0.70;99.90
8420;DHT22;4247;48.550;8.822;2023-12-07T10:46:24;0.70;99.90
8420;DHT22;4247;48.550;8.822;2023-12-07T10:48:55;0.70;99.90
8420;DHT22;4247;48.550;8.822;2023-12-07T10:51:30;0.80;99.90
8420;DHT22;4247;48.550;8.822;2023-12-07T10:53:58;0.80;99.90
8420;DHT22;4247;48.550;8.822;2023-12-07T10:56:32;0.80;99.90
8420;DHT22;4247;48.550;8.822;2023-12-07T10:59:01;0.80;99.90
8420;DHT22;4247;48.550;8.822;2023-12-07T11:01:30;0.80;99.90
8420;DHT22;4247;48.550;8.822;2023-12-07T11:03:58;0.80;99.90
8420;DHT22;4247;48.550;8.822;2023-12-07T11:06:25;0.80;99.90
8420;DHT22;4247;48.550;8.822;2023-12-07T11:08:55;0.90;99.90
8420;DHT22;4247;48.550;8.822;2023-12-07T11:11:28;0.90;99.90
8420;DHT22;4247;48.550;8.822;2023-12-07T11:13:59;0.90;99.90
8420;DHT22;4247;48.550;8.822;2023-12-07T11:16:31;0.90;99.90
8420;DHT22;4247;48.550;8.822;2023-12-07T11:18:58;1.00;99.90
8420;DHT22;4247;48.550;8.822;2023-12-07T11:21:25;0.90;99.90
8420;DHT22;4247;48.550;8.822;2023-12-07T11:23:52;1.00;99.90
8420;DHT22;4247;48.550;8.822;2023-12-07T11:26:20;1.00;99.90
8420;DHT22;4247;48.550;8.822;2023-12-07T11:28:46;1.00;99.90
8420;DHT22;4247;48.550;8.822;2023-12-07T11:31:13;1.00;99.90
8420;DHT22;4247;48.550;8.822;2023-12-07T11:33:42;1.00;99.90
8420;DHT22;4247;48.550;8.822;2023-12-07T11:36:11;1.00;99.90
8420;DHT22;4247;48.550;8.822;2023-12-07T11:39:17;1.10;99.90
8420;DHT22;4247;48.550;8.822;2023-12-07T11:41:51;1.10;99.90
8420;DHT22;4247;48.550;8.822;2023-12-07T11:44:19;1.10;99.90
8420;DHT22;4247;48.550;8.822;2023-12-07T11:46:46;1.20;99.90
8420;DHT22;4247;48.550;8.822;2023-12-07T11:49:14;1.20;99.90
8420;DHT22;4247;48.550;8.822;2023-12-07T11:51:41;1.20;99.90
8420;DHT22;4247;48.550;8.822;2023-12-07T11:54:08;1.20;99.90
8420;DHT22;4247;48.550;8.822;2023-12-07T11:56:37;1.20;99.90
8420;DHT22;4247;48.550;8.822;2023-12-07T11:59:04;1.20;99.90
8420;DHT22;4247;48.550;8.822;2023-12-07T12:01:30;1.20;99.90
8420;DHT22;4247;48.550;8.822;2023-12-07T12:03:58;1.30;99.90
8420;DHT22;4247;48.550;8.822;2023-12-07T12:06:27;1.30;99.90
8420;DHT22;4247;48.550;8.822;2023-12-07T12:08:55;1.40;99.90
8420;DHT22;4247;48.550;8.822;2023-12-07T12:11:22;1.40;99.90
8420;DHT22;4247;48.550;8.822;2023-12-07T12:13:49;1.50;99.90
8420;DHT22;4247;48.550;8.822;2023-12-07T12:16:16;1.50;99.90
8420;DHT22;4247;48.550;8.822;2023-12-07T12:18:43;1.60;99.90
8420;DHT22;4247;48.550;8.822;2023-12-07T12:21:09;1.70;99.90
8420;DHT22;4247;48.550;8.822;2023-12-07T12:23:37;1.70;99.90
8420;DHT22;4247;48.550;8.822;2023-12-07T12:26:06;1.70;99.90
8420;DHT22;4247;48.550;8.822;2023-12-07T12:28:33;1.80;99.90
8420;DHT22;4247;48.550;8.822;2023-12-07T12:31:03;1.70;99.90
8420;DHT22;4247;48.550;8.822;2023-12-07T12:33:30;1.70;99.90
8420;DHT22;4247;48.550;8.822;2023-12-07T12:36:05;1.80;99.90
8420;DHT22;4247;48.550;8.822;2023-12-07T12:38:33;1.80;99.90
8420;DHT22;4247;48.550;8.822;2023-12-07T12:41:01;1.80;99.90
8420;DHT22;4247;48.550;8.822;2023-12-07T12:43:29;1.80;99.90
8420;DHT22;4247;48.550;8.822;2023-12-07T12:45:57;1.80;99.90
8420;DHT22;4247;48.550;8.822;2023-12-07T12:48:24;1.80;99.90
8420;DHT22;4247;48.550;8.822;2023-12-07T12:50:51;1.90;99.90
8420;DHT22;4247;48.550;8.822;2023-12-07T12:53:17;1.80;99.90
8420;DHT22;4247;48.550;8.822;2023-12-07T12:55:45;1.90;99.90
8420;DHT22;4247;48.550;8.822;2023-12-07T12:58:14;1.90;99.90
8420;DHT22;4247;48.550;8.822;2023-12-07T13:00:42;1.90;99.90
8420;DHT22;4247;48.550;8.822;2023-12-07T13:03:10;1.90;99.90
8420;DHT22;4247;48.550;8.822;2023-12-07T13:05:38;1.90;99.90
8420;DHT22;4247;48.550;8.822;2023-12-07T13:08:05;1.90;99.90
8420;DHT22;4247;48.550;8.822;2023-12-07T13:10:31;1.90;99.90
8420;DHT22;4247;48.550;8.822;2023-12-07T13:13:00;1.90;99.90
8420;DHT22;4247;48.550;8.822;2023-12-07T13:15:30;1.90;99.90
8420;DHT22;4247;48.550;8.822;2023-12-07T13:17:56;2.00;99.90
8420;DHT22;4247;48.550;8.822;2023-12-07T13:20:23;2.00;99.90
8420;DHT22;4247;48.550;8.822;2023-12-07T13:22:50;2.00;99.90
8420;DHT22;4247;48.550;8.822;2023-12-07T13:25:16;2.00;99.90
8420;DHT22;4247;48.550;8.822;2023-12-07T13:27:43;2.00;99.90
8420;DHT22;4247;48.550;8.822;2023-12-07T13:30:10;2.00;99.90
8420;DHT22;4247;48.550;8.822;2023-12-07T13:32:39;2.00;99.90
8420;DHT22;4247;48.550;8.822;2023-12-07T13:35:06;2.00;99.90
8420;DHT22;4247;48.550;8.822;2023-12-07T13:37:33;2.10;99.90
8420;DHT22;4247;48.550;8.822;2023-12-07T13:40:01;2.10;99.90
8420;DHT22;4247;48.550;8.822;2023-12-07T13:42:30;2.10;99.90
8420;DHT22;4247;48.550;8.822;2023-12-07T13:44:58;2.10;99.90
8420;DHT22;4247;48.550;8.822;2023-12-07T13:47:26;2.20;99.90
8420;DHT22;4247;48.550;8.822;2023-12-07T13:49:58;2.20;99.90
8420;DHT22;4247;48.550;8.822;2023-12-07T13:52:26;2.20;99.90
8420;DHT22;4247;48.550;8.822;2023-12-07T13:54:54;2.20;99.90
8420;DHT22;4247;48.550;8.822;2023-12-07T13:57:21;2.20;99.90
8420;DHT22;4247;48.550;8.822;2023-12-07T13:59:49;2.20;99.90
8420;DHT22;4247;48.550;8.822;2023-12-07T14:02:16;2.20;99.90
8420;DHT22;4247;48.550;8.822;2023-12-07T14:04:43;2.20;99.90
8420;DHT22;4247;48.550;8.822;2023-12-07T14:07:13;2.20;99.90
8420;DHT22;4247;48.550;8.822;2023-12-07T14:09:41;2.20;99.90
8420;DHT22;4247;48.550;8.822;2023-12-07T14:12:09;2.20;99.90
8420;DHT22;4247;48.550;8.822;2023-12-07T14:14:38;2.20;99.90
8420;DHT22;4247;48.550;8.822;2023-12-07T14:17:05;2.20;99.90
8420;DHT22;4247;48.550;8.822;2023-12-07T14:19:32;2.10;99.90
8420;DHT22;4247;48.550;8.822;2023-12-07T14:21:58;2.10;99.90
8420;DHT22;4247;48.550;8.822;2023-12-07T14:24:26;2.10;99.90
8420;DHT22;4247;48.550;8.822;2023-12-07T14:26:54;2.00;99.90
8420;DHT22;4247;48.550;8.822;2023-12-07T14:29:21;2.00;99.90
8420;DHT22;4247;48.550;8.822;2023-12-07T14:31:48;1.90;99.90
8420;DHT22;4247;48.550;8.822;2023-12-07T14:34:15;1.90;99.90
8420;DHT22;4247;48.550;8.822;2023-12-07T14:36:42;1.90;99.90
8420;DHT22;4247;48.550;8.822;2023-12-07T14:39:10;1.80;99.90
8420;DHT22;4247;48.550;8.822;2023-12-07T14:41:43;1.80;99.90
8420;DHT22;4247;48.550;8.822;2023-12-07T14:44:12;1.80;99.90
8420;DHT22;4247;48.550;8.822;2023-12-07T14:46:40;1.80;99.90
8420;DHT22;4247;48.550;8.822;2023-12-07T14:49:07;1.70;99.90
8420;DHT22;4247;48.550;8.822;2023-12-07T14:51:33;1.70;99.90
8420;DHT22;4247;48.550;8.822;2023-12-07T14:54:00;1.70;99.90
8420;DHT22;4247;48.550;8.822;2023-12-07T14:56:27;1.70;99.90
8420;DHT22;4247;48.550;8.822;2023-12-07T14:58:55;1.70;99.90
8420;DHT22;4247;48.550;8.822;2023-12-07T15:01:23;1.70;99.90
8420;DHT22;4247;48.550;8.822;2023-12-07T15:03:51;1.70;99.90
8420;DHT22;4247;48.550;8.822;2023-12-07T15:06:18;1.70;99.90
8420;DHT22;4247;48.550;8.822;2023-12-07T15:08:44;1.70;99.90
8420;DHT22;4247;48.550;8.822;2023-12-07T15:11:12;1.70;99.90
8420;DHT22;4247;48.550;8.822;2023-12-07T15:13:39;1.70;99.90
8420;DHT22;4247;48.550;8.822;2023-12-07T15:16:08;1.70;99.90
8420;DHT22;4247;48.550;8.822;2023-12-07T15:18:35;1.60;99.90
8420;DHT22;4247;48.550;8.822;2023-12-07T15:21:04;1.60;99.90
8420;DHT22;4247;48.550;8.822;2023-12-07T15:23:31;1.60;99.90
8420;DHT22;4247;48.550;8.822;2023-12-07T15:25:58;1.50;99.90
8420;DHT22;4247;48.550;8.822;2023-12-07T15:28:25;1.50;99.90
8420;DHT22;4247;48.550;8.822;2023-12-07T15:30:52;1.50;99.90
8420;DHT22;4247;48.550;8.822;2023-12-07T15:33:20;1.40;99.90
8420;DHT22;4247;48.550;8.822;2023-12-07T15:35:47;1.40;99.90
8420;DHT22;4247;48.550;8.822;2023-12-07T15:38:13;1.40;99.90
8420;DHT22;4247;48.550;8.822;2023-12-07T15:40:40;1.30;99.90
8420;DHT22;4247;48.550;8.822;2023-12-07T15:43:07;1.30;99.90
8420;DHT22;4247;48.550;8.822;2023-12-07T15:45:34;1.30;99.90
8420;DHT22;4247;48.550;8.822;2023-12-07T15:48:01;1.30;99.90
8420;DHT22;4247;48.550;8.822;2023-12-07T15:50:29;1.20;99.90
8420;DHT22;4247;48.550;8.822;2023-12-07T15:52:55;1.20;99.90
8420;DHT22;4247;48.550;8.822;2023-12-07T15:55:22;1.20;99.90
8420;DHT22;4247;48.550;8.822;2023-12-07T15:57:48;1.20;99.90
8420;DHT22;4247;48.550;8.822;2023-12-07T16:00:15;1.10;99.90
8420;DHT22;4247;48.550;8.822;2023-12-07T16:02:42;1.10;99.90
8420;DHT22;4247;48.550;8.822;2023-12-07T16:05:09;1.10;99.90
8420;DHT22;4247;48.550;8.822;2023-12-07T16:07:37;1.10;99.90
8420;DHT22;4247;48.550;8.822;2023-12-07T16:10:06;1.00;99.90
8420;DHT22;4247;48.550;8.822;2023-12-07T16:12:33;1.00;99.90